Time,TemperatureF,DewpointF,PressureIn,WindDirection,WindDirectionDegrees,WindSpeedMPH,WindSpeedGustMPH,Humidity,HourlyPrecipIn,Conditions,Clouds,dailyrainin,SoftwareType,DateUTC
2013-01-19 00:02:00,39.0,37.0,30.22,East,101,2.0,6.0,93,0.00,,,0.00,,2013-01-19 08:02:00,
2013-01-19 00:11:00,39.0,37.0,30.22,East,101,2.0,6.0,93,0.00,,,0.00,,2013-01-19 08:11:00,
2013-01-19 00:22:00,38.0,36.0,30.21,SE,144,1.0,3.0,93,0.00,,,0.00,,2013-01-19 08:22:00,
2013-01-19 00:32:00,39.0,37.0,30.22,ESE,115,0.0,2.0,93,0.00,,,0.00,,2013-01-19 08:32:00,
2013-01-19 00:42:00,39.0,37.0,30.22,ESE,115,0.0,2.0,93,0.00,,,0.00,,2013-01-19 08:42:00,
2013-01-19 00:52:00,39.0,37.0,30.22,ESE,123,0.0,6.0,93,0.00,,,0.00,,2013-01-19 08:52:00,
2013-01-19 01:02:00,39.0,37.0,30.22,ESE,123,0.0,2.0,92,0.00,,,0.00,,2013-01-19 09:02:00,
2013-01-19 01:12:00,39.0,37.0,30.22,ESE,123,0.0,2.0,92,0.00,,,0.00,,2013-01-19 09:12:00,
2013-01-19 01:22:00,37.0,35.0,30.22,ESE,123,1.0,2.0,92,0.00,,,0.00,,2013-01-19 09:22:00,
2013-01-19 01:32:00,37.0,35.0,30.22,East,92,1.0,3.0,93,0.00,,,0.00,,2013-01-19 09:32:00,
2013-01-19 01:42:00,37.0,35.0,30.22,East,92,1.0,3.0,93,0.00,,,0.00,,2013-01-19 09:42:00,
2013-01-19 01:52:00,37.0,35.0,30.22,East,96,0.0,5.0,93,0.00,,,0.00,,2013-01-19 09:52:00,
2013-01-19 02:02:00,37.0,35.0,30.22,East,96,3.0,7.0,92,0.00,,,0.00,,2013-01-19 10:02:00,
2013-01-19 02:12:00,37.0,35.0,30.22,East,96,3.0,7.0,92,0.00,,,0.00,,2013-01-19 10:12:00,
2013-01-19 02:22:00,37.0,35.0,30.22,East,93,0.0,5.0,91,0.00,,,0.00,,2013-01-19 10:22:00,
2013-01-19 02:32:00,38.0,36.0,30.22,East,79,1.0,9.0,91,0.00,,,0.00,,2013-01-19 10:32:00,
2013-01-19 02:42:00,38.0,36.0,30.22,East,79,1.0,9.0,91,0.00,,,0.00,,2013-01-19 10:42:00,
2013-01-19 02:52:00,39.0,37.0,30.22,NE,48,7.0,12.0,91,0.00,,,0.00,,2013-01-19 10:52:00,
2013-01-19 03:02:00,40.0,37.0,30.22,NE,54,7.0,11.0,89,0.00,,,0.00,,2013-01-19 11:02:00,
2013-01-19 03:12:00,40.0,37.0,30.22,NE,54,7.0,11.0,89,0.00,,,0.00,,2013-01-19 11:12:00,
2013-01-19 04:52:00,40.0,36.0,30.21,SSW,212,3.0,9.0,85,0.00,,,0.00,,2013-01-19 12:52:00,
2013-01-19 05:02:00,42.0,38.0,30.22,ESE,117,2.0,4.0,84,0.00,,,0.00,,2013-01-19 13:02:00,
2013-01-19 05:12:00,42.0,38.0,30.22,ESE,117,2.0,4.0,84,0.00,,,0.00,,2013-01-19 13:12:00,
2013-01-19 05:22:00,41.0,36.0,30.22,WSW,238,3.0,6.0,83,0.00,,,0.00,,2013-01-19 13:22:00,
2013-01-19 05:33:00,40.0,36.0,30.22,SW,214,4.0,6.0,84,0.00,,,0.00,,2013-01-19 13:33:00,
2013-01-19 05:42:00,40.0,36.0,30.22,SW,214,4.0,6.0,84,0.00,,,0.00,,2013-01-19 13:42:00,
2013-01-19 05:52:00,40.0,36.0,30.22,SW,214,4.0,6.0,84,0.00,,,0.00,,2013-01-19 13:52:00,
2013-01-19 06:02:00,36.0,32.0,30.23,SSE,147,1.0,6.0,85,0.00,,,0.00,,2013-01-19 14:02:00,
2013-01-19 06:12:00,36.0,32.0,30.23,SSE,147,1.0,6.0,85,0.00,,,0.00,,2013-01-19 14:12:00,
2013-01-19 06:22:00,36.0,32.0,30.23,SE,141,1.0,4.0,86,0.00,,,0.00,,2013-01-19 14:22:00,
2013-01-19 06:33:00,36.0,33.0,30.23,SSE,154,3.0,7.0,87,0.00,,,0.00,,2013-01-19 14:33:00,
2013-01-19 06:42:00,36.0,33.0,30.23,SSE,154,3.0,7.0,87,0.00,,,0.00,,2013-01-19 14:42:00,
2013-01-19 06:53:00,39.0,35.0,30.23,East,92,3.0,11.0,87,0.00,,,0.00,,2013-01-19 14:53:00,
2013-01-19 07:03:00,40.0,36.0,30.24,SSW,200,3.0,6.0,87,0.00,,,0.00,,2013-01-19 15:03:00,
2013-01-19 07:12:00,40.0,36.0,30.24,SSW,200,3.0,6.0,87,0.00,,,0.00,,2013-01-19 15:12:00,
2013-01-19 07:22:00,38.0,34.0,30.24,SSE,154,2.0,7.0,86,0.00,,,0.00,,2013-01-19 15:22:00,
2013-01-19 07:33:00,38.0,34.0,30.24,SSE,160,4.0,7.0,86,0.00,,,0.00,,2013-01-19 15:33:00,
2013-01-19 07:42:00,38.0,34.0,30.24,SSE,160,4.0,7.0,86,0.00,,,0.00,,2013-01-19 15:42:00,
2013-01-19 07:53:00,37.0,33.0,30.24,South,179,4.0,9.0,86,0.00,,,0.00,,2013-01-19 15:53:00,
2013-01-19 08:02:00,38.0,35.0,30.25,South,179,5.0,8.0,88,0.00,,,0.00,,2013-01-19 16:02:00,
2013-01-19 08:12:00,38.0,35.0,30.25,South,179,5.0,8.0,88,0.00,,,0.00,,2013-01-19 16:12:00,
2013-01-19 08:22:00,40.0,37.0,30.25,SSW,212,6.0,8.0,89,0.00,,,0.00,,2013-01-19 16:22:00,
2013-01-19 08:32:00,39.0,36.0,30.26,SSE,163,6.0,8.0,89,0.00,,,0.00,,2013-01-19 16:32:00,
2013-01-19 08:42:00,39.0,36.0,30.26,SSE,163,6.0,8.0,89,0.00,,,0.00,,2013-01-19 16:42:00,
2013-01-19 08:53:00,40.0,38.0,30.26,SSE,152,4.0,8.0,91,0.00,,,0.00,,2013-01-19 16:53:00,
2013-01-19 09:02:00,40.0,37.0,30.27,SSW,200,4.0,8.0,90,0.00,,,0.00,,2013-01-19 17:02:00,
2013-01-19 09:13:00,40.0,37.0,30.27,SSW,200,4.0,8.0,90,0.00,,,0.00,,2013-01-19 17:13:00,
2013-01-19 09:26:00,40.0,37.0,30.27,SSE,162,3.0,7.0,89,0.00,,,0.00,,2013-01-19 17:26:00,
2013-01-19 09:34:00,40.0,37.0,30.28,SSW,207,2.0,5.0,89,0.00,,,0.00,,2013-01-19 17:34:00,
2013-01-19 09:44:00,40.0,37.0,30.28,SSW,207,2.0,5.0,89,0.00,,,0.00,,2013-01-19 17:44:00,
2013-01-19 09:53:00,41.0,39.0,30.29,South,175,2.0,4.0,91,0.00,,,0.00,,2013-01-19 17:53:00,
2013-01-19 10:05:00,41.0,39.0,30.29,SW,219,1.0,4.0,91,0.00,,,0.00,,2013-01-19 18:05:00,
2013-01-19 10:12:00,41.0,39.0,30.29,SW,219,1.0,4.0,91,0.00,,,0.00,,2013-01-19 18:12:00,
2013-01-19 10:24:00,42.0,40.0,30.29,West,265,2.0,4.0,93,0.00,,,0.00,,2013-01-19 18:24:00,
2013-01-19 10:34:00,43.0,41.0,30.29,WNW,288,2.0,5.0,93,0.00,,,0.00,,2013-01-19 18:34:00,
2013-01-19 10:43:00,43.0,41.0,30.29,WNW,288,2.0,5.0,93,0.00,,,0.00,,2013-01-19 18:43:00,
2013-01-19 11:05:00,43.0,41.0,30.30,WNW,293,4.0,7.0,94,0.00,,,0.00,,2013-01-19 19:05:00,
2013-01-19 11:14:00,43.0,41.0,30.30,WNW,293,4.0,7.0,94,0.00,,,0.00,,2013-01-19 19:14:00,
2013-01-19 11:25:00,43.0,41.0,30.30,NW,311,3.0,7.0,94,0.00,,,0.00,,2013-01-19 19:25:00,
2013-01-19 11:36:00,43.0,41.0,30.29,NW,319,5.0,7.0,94,0.00,,,0.00,,2013-01-19 19:36:00,
2013-01-19 11:43:00,43.0,41.0,30.29,NW,319,5.0,7.0,94,0.00,,,0.00,,2013-01-19 19:43:00,
2013-01-19 11:54:00,43.0,41.0,30.29,NW,312,4.0,6.0,94,0.00,,,0.00,,2013-01-19 19:54:00,
2013-01-19 12:07:00,43.0,41.0,30.29,WNW,284,5.0,7.0,94,0.00,,,0.00,,2013-01-19 20:07:00,
2013-01-19 12:14:00,43.0,41.0,30.29,WNW,284,5.0,7.0,94,0.00,,,0.00,,2013-01-19 20:14:00,
2013-01-19 12:23:00,43.0,41.0,30.29,WNW,286,4.0,8.0,94,0.00,,,0.00,,2013-01-19 20:23:00,
2013-01-19 12:35:00,43.0,41.0,30.28,WNW,294,3.0,6.0,94,0.00,,,0.00,,2013-01-19 20:35:00,
2013-01-19 12:43:00,43.0,41.0,30.28,WNW,294,3.0,6.0,94,0.00,,,0.00,,2013-01-19 20:43:00,
2013-01-19 13:04:00,43.0,41.0,30.28,WSW,245,2.0,6.0,94,0.00,,,0.00,,2013-01-19 21:04:00,
2013-01-19 13:13:00,43.0,41.0,30.28,WSW,245,2.0,6.0,94,0.00,,,0.00,,2013-01-19 21:13:00,
2013-01-19 13:23:00,44.0,43.0,30.27,West,281,6.0,7.0,95,0.00,,,0.00,,2013-01-19 21:23:00,
2013-01-19 13:45:00,43.0,41.0,30.27,WNW,290,4.0,6.0,94,0.00,,,0.00,,2013-01-19 21:45:00,
2013-01-19 13:53:00,43.0,42.0,30.27,NW,307,4.0,7.0,95,0.00,,,0.00,,2013-01-19 21:53:00,
2013-01-19 14:06:00,43.0,41.0,30.26,NW,304,4.0,5.0,94,0.00,,,0.00,,2013-01-19 22:06:00,
2013-01-19 14:13:00,43.0,41.0,30.26,NW,304,4.0,5.0,94,0.00,,,0.00,,2013-01-19 22:13:00,
2013-01-19 14:23:00,43.0,41.0,30.26,WNW,300,4.0,7.0,94,0.00,,,0.00,,2013-01-19 22:23:00,
2013-01-19 14:34:00,43.0,42.0,30.26,WNW,302,3.0,7.0,95,0.00,,,0.00,,2013-01-19 22:34:00,
2013-01-19 14:44:00,43.0,42.0,30.26,WNW,302,3.0,7.0,95,0.00,,,0.00,,2013-01-19 22:44:00,
2013-01-19 15:07:00,43.0,42.0,30.26,WNW,302,4.0,8.0,95,0.00,,,0.00,,2013-01-19 23:07:00,
2013-01-19 15:13:00,43.0,42.0,30.26,WNW,302,4.0,8.0,95,0.00,,,0.00,,2013-01-19 23:13:00,
2013-01-19 15:24:00,43.0,42.0,30.27,NW,323,3.0,6.0,95,0.00,,,0.00,,2013-01-19 23:24:00,
2013-01-19 15:33:00,42.0,41.0,30.27,NW,316,3.0,7.0,95,0.00,,,0.00,,2013-01-19 23:33:00,
2013-01-19 15:43:00,42.0,41.0,30.27,NW,316,3.0,7.0,95,0.00,,,0.00,,2013-01-19 23:43:00,
2013-01-19 16:07:00,42.0,41.0,30.27,WNW,290,4.0,6.0,95,0.00,,,0.00,,2013-01-20 00:07:00,
2013-01-19 16:13:00,42.0,41.0,30.27,WNW,290,4.0,6.0,95,0.00,,,0.00,,2013-01-20 00:13:00,
2013-01-19 16:23:00,42.0,41.0,30.27,WNW,301,5.0,7.0,95,0.00,,,0.00,,2013-01-20 00:23:00,
2013-01-19 16:34:00,42.0,41.0,30.27,NW,325,6.0,9.0,95,0.00,,,0.00,,2013-01-20 00:34:00,
2013-01-19 16:44:00,42.0,41.0,30.27,NW,325,6.0,9.0,95,0.00,,,0.00,,2013-01-20 00:44:00,
2013-01-19 16:53:00,42.0,41.0,30.27,NNW,327,5.0,10.0,96,0.00,,,0.00,,2013-01-20 00:53:00,
2013-01-19 17:03:00,42.0,41.0,30.27,NNW,332,6.0,7.0,95,0.00,,,0.00,,2013-01-20 01:03:00,
2013-01-19 17:14:00,42.0,41.0,30.27,NNW,332,6.0,7.0,95,0.00,,,0.00,,2013-01-20 01:14:00,
2013-01-19 17:34:00,42.0,41.0,30.27,NNW,347,4.0,8.0,96,0.00,,,0.00,,2013-01-20 01:34:00,
2013-01-19 17:44:00,42.0,41.0,30.27,NNW,347,4.0,8.0,96,0.00,,,0.00,,2013-01-20 01:44:00,
2013-01-19 18:04:00,42.0,41.0,30.27,NNW,340,4.0,10.0,96,0.00,,,0.00,,2013-01-20 02:04:00,
2013-01-19 18:24:00,42.0,41.0,30.28,North,352,6.0,11.0,96,0.00,,,0.00,,2013-01-20 02:24:00,
2013-01-19 18:34:00,42.0,41.0,30.28,North,5,6.0,9.0,96,0.00,,,0.00,,2013-01-20 02:34:00,
2013-01-19 18:43:00,42.0,41.0,30.28,North,5,6.0,9.0,96,0.00,,,0.00,,2013-01-20 02:43:00,
2013-01-19 18:54:00,41.0,40.0,30.28,NNE,33,4.0,7.0,96,0.00,,,0.00,,2013-01-20 02:54:00,
2013-01-19 19:05:00,41.0,40.0,30.29,NE,52,2.0,8.0,96,0.00,,,0.00,,2013-01-20 03:05:00,
2013-01-19 19:13:00,41.0,40.0,30.29,NE,52,2.0,8.0,96,0.00,,,0.00,,2013-01-20 03:13:00,
2013-01-19 19:23:00,41.0,40.0,30.29,NE,48,4.0,6.0,96,0.00,,,0.00,,2013-01-20 03:23:00,
2013-01-19 19:35:00,41.0,40.0,30.28,NE,36,6.0,9.0,96,0.00,,,0.00,,2013-01-20 03:35:00,
2013-01-19 19:43:00,41.0,40.0,30.28,NE,36,6.0,9.0,96,0.00,,,0.00,,2013-01-20 03:43:00,
2013-01-19 19:53:00,41.0,40.0,30.28,NE,37,7.0,9.0,96,0.00,,,0.00,,2013-01-20 03:53:00,
2013-01-19 20:04:00,40.0,39.0,30.29,ENE,65,6.0,11.0,96,0.00,,,0.00,,2013-01-20 04:04:00,
2013-01-19 20:14:00,40.0,39.0,30.29,ENE,65,6.0,11.0,96,0.00,,,0.00,,2013-01-20 04:14:00,
2013-01-19 20:23:00,40.0,39.0,30.29,NE,40,4.0,9.0,96,0.00,,,0.00,,2013-01-20 04:23:00,
2013-01-19 20:33:00,40.0,39.0,30.29,NNE,25,6.0,10.0,96,0.00,,,0.00,,2013-01-20 04:33:00,
2013-01-19 20:43:00,40.0,39.0,30.29,NNE,25,6.0,10.0,96,0.00,,,0.00,,2013-01-20 04:43:00,
2013-01-19 20:53:00,40.0,39.0,30.30,NE,42,3.0,7.0,96,0.00,,,0.00,,2013-01-20 04:53:00,
2013-01-19 21:03:00,39.0,38.0,30.29,NE,46,6.0,8.0,96,0.00,,,0.00,,2013-01-20 05:03:00,
2013-01-19 21:12:00,39.0,38.0,30.29,NE,46,6.0,8.0,96,0.00,,,0.00,,2013-01-20 05:12:00,
2013-01-19 21:22:00,39.0,38.0,30.30,NE,42,4.0,8.0,96,0.00,,,0.00,,2013-01-20 05:22:00,
2013-01-19 21:32:00,39.0,38.0,30.29,NE,46,5.0,7.0,96,0.00,,,0.00,,2013-01-20 05:32:00,
2013-01-19 21:42:00,39.0,38.0,30.29,NE,46,5.0,7.0,96,0.00,,,0.00,,2013-01-20 05:42:00,
2013-01-19 21:53:00,38.0,37.0,30.29,NE,38,4.0,6.0,96,0.00,,,0.00,,2013-01-20 05:53:00,
2013-01-19 22:02:00,38.0,37.0,30.29,NE,42,4.0,7.0,96,0.00,,,0.00,,2013-01-20 06:02:00,
2013-01-19 22:11:00,38.0,37.0,30.29,NE,42,4.0,7.0,96,0.00,,,0.00,,2013-01-20 06:11:00,
2013-01-19 22:22:00,37.0,36.0,30.29,NNE,17,2.0,4.0,96,0.00,,,0.00,,2013-01-20 06:22:00,
2013-01-19 22:33:00,37.0,36.0,30.29,ENE,57,2.0,4.0,96,0.00,,,0.00,,2013-01-20 06:33:00,
2013-01-19 22:42:00,37.0,36.0,30.29,ENE,57,2.0,4.0,96,0.00,,,0.00,,2013-01-20 06:42:00,
2013-01-19 22:52:00,37.0,36.0,30.29,NE,38,2.0,5.0,96,0.00,,,0.00,,2013-01-20 06:52:00,
2013-01-19 23:02:00,36.0,35.0,30.29,ENE,78,1.0,3.0,96,0.00,,,0.00,,2013-01-20 07:02:00,
2013-01-19 23:11:00,36.0,35.0,30.29,ENE,78,1.0,3.0,96,0.00,,,0.00,,2013-01-20 07:11:00,
2013-01-19 23:22:00,37.0,36.0,30.29,NE,54,2.0,3.0,96,0.00,,,0.00,,2013-01-20 07:22:00,
2013-01-19 23:32:00,37.0,36.0,30.30,ENE,69,1.0,3.0,96,0.00,,,0.00,,2013-01-20 07:32:00,
2013-01-19 23:42:00,37.0,36.0,30.30,ENE,69,1.0,3.0,96,0.00,,,0.00,,2013-01-20 07:42:00,
2013-01-19 23:52:00,38.0,37.0,30.29,East,83,0.0,2.0,96,0.00,,,0.00,,2013-01-20 07:52:00,